createdAt,value
2022-11-27T00:01:25.542Z,102199.72
2022-11-27T00:03:55.770Z,102204.28
2022-11-27T00:06:27.514Z,102192.50
2022-11-27T00:08:57.816Z,102191.38
2022-11-27T00:11:28.594Z,102190.25
2022-11-27T00:13:57.036Z,102191.63
2022-11-27T00:16:26.695Z,102189.81
2022-11-27T00:18:55.068Z,102186.50
2022-11-27T00:21:25.476Z,102208.19
2022-11-27T00:23:55.007Z,102187.81
2022-11-27T00:26:23.628Z,102184.25
2022-11-27T00:28:53.207Z,102186.69
2022-11-27T00:31:23.752Z,102173.09
2022-11-27T00:33:51.998Z,102164.28
2022-11-27T00:36:52.461Z,101993.50
2022-11-27T00:39:20.705Z,102159.56
2022-11-27T00:41:48.507Z,102153.25
2022-11-27T00:44:17.734Z,102152.53
2022-11-27T00:46:46.498Z,102153.72
2022-11-27T00:49:15.910Z,102147.81
2022-11-27T00:51:43.907Z,102151.00
2022-11-27T00:54:11.807Z,102151.00
2022-11-27T00:56:40.730Z,102156.47
2022-11-27T00:59:09.161Z,102154.22
2022-11-27T01:01:41.427Z,102151.06
2022-11-27T01:04:12.745Z,102146.94
2022-11-27T01:06:41.451Z,102146.06
2022-11-27T01:09:09.721Z,102139.25
2022-11-27T01:11:38.111Z,102139.25
2022-11-27T01:14:08.859Z,102135.84
2022-11-27T01:16:42.677Z,102136.75
2022-11-27T01:19:11.534Z,102137.47
2022-11-27T01:21:39.784Z,102135.84
2022-11-27T01:24:08.865Z,102129.97
2022-11-27T01:26:36.690Z,102120.00
2022-11-27T01:29:05.158Z,102123.16
2022-11-27T01:31:34.459Z,102116.19
2022-11-27T01:34:06.050Z,102111.88
2022-11-27T01:36:35.290Z,102110.97
2022-11-27T01:39:03.247Z,102110.75
2022-11-27T01:41:33.041Z,102117.56
2022-11-27T01:44:03.115Z,102118.19
2022-11-27T01:46:38.666Z,102108.41
2022-11-27T01:49:24.353Z,102104.34
2022-11-27T01:51:56.172Z,102101.84
2022-11-27T01:54:27.404Z,102103.44
2022-11-27T01:56:59.699Z,102105.91
2022-11-27T01:59:27.704Z,102111.34
2022-11-27T02:01:55.714Z,102105.47
2022-11-27T02:04:24.905Z,102093.69
2022-11-27T02:06:52.743Z,102102.03
2022-11-27T02:09:22.993Z,102102.25
2022-11-27T02:11:58.767Z,102090.25
2022-11-27T02:14:33.401Z,102106.13
2022-11-27T02:17:07.287Z,102105.59
2022-11-27T02:19:51.608Z,102086.56
2022-11-27T02:22:33.750Z,102087.44
2022-11-27T02:25:07.569Z,102088.53
2022-11-27T02:28:17.202Z,102080.59
2022-11-27T02:30:53.084Z,102079.22
2022-11-27T02:33:22.884Z,102080.03
2022-11-27T02:35:55.523Z,102071.88
2022-11-27T02:38:28.770Z,102059.81
2022-11-27T02:41:00.730Z,102059.81
2022-11-27T02:43:33.201Z,102049.16
2022-11-27T02:46:05.024Z,102045.75
2022-11-27T02:48:36.827Z,102052.25
2022-11-27T02:51:07.210Z,102043.19
2022-11-27T02:53:39.613Z,102036.41
2022-11-27T02:56:11.539Z,102040.28
2022-11-27T02:58:40.410Z,102038.72
2022-11-27T03:01:12.705Z,102038.13
2022-11-27T03:03:46.021Z,102033.19
2022-11-27T03:06:19.226Z,102034.13
2022-11-27T03:08:54.346Z,102035.31
2022-11-27T03:11:22.620Z,102034.41
2022-11-27T03:13:54.354Z,102031.69
2022-11-27T03:16:31.632Z,102021.78
2022-11-27T03:19:07.434Z,102031.34
2022-11-27T03:21:37.820Z,102029.59
2022-11-27T03:24:07.565Z,102030.06
2022-11-27T03:26:35.758Z,102034.16
2022-11-27T03:29:07.382Z,102029.63
2022-11-27T03:31:37.010Z,102026.03
2022-11-27T03:34:05.722Z,102018.81
2022-11-27T03:36:33.557Z,102027.19
2022-11-27T03:39:01.640Z,102036.97
2022-11-27T03:41:41.770Z,102038.75
2022-11-27T03:44:18.367Z,101995.84
2022-11-27T03:46:59.598Z,102030.59
2022-11-27T03:49:40.330Z,102027.66
2022-11-27T03:52:15.290Z,102011.44
2022-11-27T03:54:51.903Z,102034.03
2022-11-27T03:57:25.122Z,102043.31
2022-11-27T03:59:57.351Z,102039.72
2022-11-27T04:02:32.625Z,102041.31
2022-11-27T04:05:00.388Z,102046.53
2022-11-27T04:07:28.394Z,102039.31
2022-11-27T04:09:56.302Z,102039.13
2022-11-27T04:12:24.120Z,102039.81
2022-11-27T04:14:52.157Z,102034.38
2022-11-27T04:17:19.866Z,102033.50
2022-11-27T04:19:49.355Z,102029.00
2022-11-27T04:22:17.175Z,102021.06
2022-11-27T04:24:45.047Z,102022.47
2022-11-27T04:27:13.081Z,102010.94
2022-11-27T04:29:40.884Z,102021.81
2022-11-27T04:32:09.095Z,102013.44
2022-11-27T04:34:36.954Z,102017.19
2022-11-27T04:37:06.251Z,102023.09
2022-11-27T04:39:34.034Z,102026.03
2022-11-27T04:42:01.931Z,102021.31
2022-11-27T04:44:29.762Z,102016.31
2022-11-27T04:46:57.685Z,102013.81
2022-11-27T04:49:25.619Z,102013.59
2022-11-27T04:51:53.382Z,101985.41
2022-11-27T04:54:22.769Z,102012.06
2022-11-27T04:56:50.594Z,102007.53
2022-11-27T04:59:18.497Z,102005.50
2022-11-27T05:01:46.260Z,101993.66
2022-11-27T05:04:13.977Z,101987.59
2022-11-27T05:06:41.858Z,101977.63
2022-11-27T05:09:10.108Z,101984.91
2022-11-27T05:11:39.396Z,101982.47
2022-11-27T05:14:17.037Z,101985.84
2022-11-27T05:16:48.370Z,101982.03
2022-11-27T05:19:17.921Z,101986.81
2022-11-27T05:21:46.696Z,101978.91
2022-11-27T05:24:15.367Z,101968.72
2022-11-27T05:26:45.035Z,101968.72
2022-11-27T05:29:15.643Z,101955.16
2022-11-27T05:31:45.394Z,101950.81
2022-11-27T05:34:13.909Z,101945.34
2022-11-27T05:36:42.679Z,101938.78
2022-11-27T05:39:12.114Z,101940.38
2022-11-27T05:41:44.676Z,101931.78
2022-11-27T05:44:14.267Z,101928.66
2022-11-27T05:46:43.983Z,101932.28
2022-11-27T05:49:14.120Z,101932.28
2022-11-27T05:51:46.349Z,101933.16
2022-11-27T05:54:18.621Z,101931.78
2022-11-27T05:56:47.904Z,101924.53
2022-11-27T05:59:16.005Z,101918.16
2022-11-27T06:01:44.084Z,101907.78
2022-11-27T06:04:12.015Z,101902.78
2022-11-27T06:06:39.898Z,101905.28
2022-11-27T06:09:12.441Z,101904.38
2022-11-27T06:11:41.548Z,101906.81
2022-11-27T06:14:11.848Z,101905.44
2022-11-27T06:16:39.800Z,101906.34
2022-11-27T06:19:09.103Z,101907.03
2022-11-27T06:21:36.962Z,101898.66
2022-11-27T06:24:05.183Z,101905.66
2022-11-27T06:26:34.986Z,101911.28
2022-11-27T06:29:03.179Z,101912.59
2022-11-27T06:31:34.012Z,101911.84
2022-11-27T06:34:02.146Z,101927.94
2022-11-27T06:39:12.249Z,101903.41
2022-11-27T06:41:40.134Z,101895.94
2022-11-27T06:44:08.110Z,101878.50
2022-11-27T06:46:35.993Z,101883.97
2022-11-27T06:49:04.499Z,101885.97
2022-11-27T06:51:38.535Z,101882.53
2022-11-27T06:54:06.434Z,101888.91
2022-11-27T06:56:38.633Z,101894.03
2022-11-27T06:59:06.481Z,101894.94
2022-11-27T07:01:34.608Z,101900.78
2022-11-27T07:04:04.024Z,101887.00
2022-11-27T07:06:34.689Z,101892.97
2022-11-27T07:09:02.679Z,101883.00
2022-11-27T07:11:34.505Z,101882.09
2022-11-27T07:14:06.066Z,101878.50
2022-11-27T07:16:36.471Z,101883.97
2022-11-27T07:19:06.659Z,101886.22
2022-11-27T07:22:02.294Z,101881.25
2022-11-27T07:24:30.236Z,101873.09
2022-11-27T07:26:58.056Z,101872.59
2022-11-27T07:29:27.572Z,101862.44
2022-11-27T07:32:20.536Z,101868.25
2022-11-27T07:34:51.510Z,101870.06
2022-11-27T07:37:19.386Z,101867.59
2022-11-27T07:40:01.838Z,101869.16
2022-11-27T07:42:38.309Z,101846.34
2022-11-27T07:45:09.440Z,101861.63
2022-11-27T07:47:40.847Z,101849.41
2022-11-27T07:50:09.870Z,101864.50
2022-11-27T07:52:41.976Z,101862.03
2022-11-27T07:55:10.726Z,101864.94
2022-11-27T07:57:38.605Z,101858.78
2022-11-27T08:00:09.646Z,101853.81
2022-11-27T08:02:40.657Z,101855.09
2022-11-27T08:05:12.630Z,101846.97
2022-11-27T08:07:41.235Z,101851.63
2022-11-27T08:10:11.833Z,101852.75
2022-11-27T08:12:41.622Z,101842.78
2022-11-27T08:15:12.373Z,101860.50
2022-11-27T08:17:46.467Z,101850.88
2022-11-27T08:20:14.768Z,101849.56
2022-11-27T08:22:42.705Z,101852.28
2022-11-27T08:25:20.216Z,101851.44
2022-11-27T08:27:48.502Z,101851.97
2022-11-27T08:30:27.994Z,101854.09
2022-11-27T08:32:56.069Z,101839.19
2022-11-27T08:35:24.072Z,101846.22
2022-11-27T08:37:52.220Z,101849.09
2022-11-27T08:40:20.431Z,101837.72
2022-11-27T08:42:50.791Z,101839.50
2022-11-27T08:45:22.720Z,101834.94
2022-11-27T08:47:50.748Z,101837.56
2022-11-27T08:50:21.262Z,101831.88
2022-11-27T08:52:56.544Z,101835.38
2022-11-27T08:55:24.481Z,101819.00
2022-11-27T08:57:55.656Z,101817.97
2022-11-27T09:00:27.870Z,101826.88
2022-11-27T09:02:56.446Z,101820.97
2022-11-27T09:05:24.307Z,101816.56
2022-11-27T09:07:52.618Z,101821.09
2022-11-27T09:10:24.317Z,101811.66
2022-11-27T09:12:56.204Z,101805.47
2022-11-27T09:15:25.603Z,101809.66
2022-11-27T09:17:53.437Z,101800.59
2022-11-27T09:20:27.104Z,101791.97
2022-11-27T09:22:55.313Z,101795.66
2022-11-27T09:25:27.368Z,101797.25
2022-11-27T09:28:02.257Z,101790.31
2022-11-27T09:30:31.491Z,101792.69
2022-11-27T09:32:59.337Z,101793.72
2022-11-27T09:35:27.348Z,101792.25
2022-11-27T09:37:55.329Z,101781.28
2022-11-27T09:40:23.248Z,101800.56
2022-11-27T09:42:56.775Z,101786.34
2022-11-27T09:45:26.313Z,101769.59
2022-11-27T09:48:06.651Z,101764.00
2022-11-27T09:50:38.121Z,101764.38
2022-11-27T09:53:24.194Z,101741.44
2022-11-27T09:55:58.555Z,101779.75
2022-11-27T09:58:37.726Z,101778.25
2022-11-27T10:01:12.972Z,101781.59
2022-11-27T10:03:44.378Z,101776.69
2022-11-27T10:06:26.143Z,101772.47
2022-11-27T10:09:10.319Z,101769.66
2022-11-27T10:11:49.100Z,101761.03
2022-11-27T10:14:38.222Z,101743.06
2022-11-27T10:17:15.599Z,101739.03
2022-11-27T10:19:53.861Z,101739.25
2022-11-27T10:22:27.299Z,101726.44
2022-11-27T10:25:04.290Z,101719.50
2022-11-27T10:27:39.595Z,101709.84
2022-11-27T10:30:22.644Z,101721.91
2022-11-27T10:32:56.898Z,101709.44
2022-11-27T10:35:31.637Z,101719.69
2022-11-27T10:38:06.552Z,101679.16
2022-11-27T10:40:41.910Z,101719.81
2022-11-27T10:43:14.451Z,101720.75
2022-11-27T10:45:46.981Z,101709.97
2022-11-27T10:51:17.680Z,101707.78
2022-11-27T10:53:49.474Z,101711.41
2022-11-27T10:56:50.613Z,101708.91
2022-11-27T10:59:32.887Z,101699.22
2022-11-27T11:02:05.421Z,101694.03
2022-11-27T11:04:39.019Z,101696.06
2022-11-27T11:07:26.115Z,101688.22
2022-11-27T11:09:55.210Z,101684.50
2022-11-27T11:12:24.540Z,101691.13
2022-11-27T11:14:53.098Z,101678.22
2022-11-27T11:17:27.390Z,101678.59
2022-11-27T11:19:56.005Z,101687.56
2022-11-27T11:22:25.504Z,101680.63
2022-11-27T11:24:54.703Z,101681.88
2022-11-27T11:27:27.360Z,101682.81
2022-11-27T11:29:59.218Z,101677.63
2022-11-27T11:32:29.336Z,101675.66
2022-11-27T11:35:01.835Z,101662.56
2022-11-27T11:37:32.743Z,101666.84
2022-11-27T11:40:03.394Z,101664.00
2022-11-27T11:42:36.478Z,101656.50
2022-11-27T11:45:17.442Z,101654.16
2022-11-27T11:47:46.385Z,101642.28
2022-11-27T11:50:15.863Z,101638.53
2022-11-27T11:52:54.118Z,101640.69
2022-11-27T11:55:28.900Z,101635.47
2022-11-27T11:58:28.788Z,101631.19
2022-11-27T12:01:26.510Z,101621.16
2022-11-27T12:04:22.772Z,101625.66
2022-11-27T12:06:59.362Z,101618.66
2022-11-27T12:09:45.621Z,101618.84
2022-11-27T12:12:27.614Z,101617.22
2022-11-27T12:15:02.766Z,101621.38
2022-11-27T12:17:58.523Z,101596.28
2022-11-27T12:20:34.932Z,101608.31
2022-11-27T12:23:38.643Z,101593.09
2022-11-27T12:26:19.006Z,101586.66
2022-11-27T12:29:18.306Z,101578.78
2022-11-27T12:32:00.233Z,101587.38
2022-11-27T12:34:42.269Z,101587.72
2022-11-27T12:37:28.410Z,101580.59
2022-11-27T12:40:17.321Z,101570.56
2022-11-27T12:43:08.024Z,101564.13
2022-11-27T12:45:40.656Z,101556.06
2022-11-27T12:48:16.573Z,101564.47
2022-11-27T12:50:49.376Z,101555.53
2022-11-27T12:53:24.719Z,101549.09
2022-11-27T12:56:02.149Z,101544.09
2022-11-27T12:58:36.433Z,101553.41
2022-11-27T13:01:07.795Z,101540.34
2022-11-27T13:03:56.834Z,101544.09
2022-11-27T13:06:29.830Z,101549.84
2022-11-27T13:09:11.945Z,101549.13
2022-11-27T13:11:41.955Z,101546.78
2022-11-27T13:14:19.859Z,101546.97
2022-11-27T13:16:52.528Z,101546.97
2022-11-27T13:19:26.359Z,101544.47
2022-11-27T13:21:56.581Z,101521.72
2022-11-27T13:24:29.777Z,101531.19
2022-11-27T13:27:07.359Z,101489.81
2022-11-27T13:29:45.185Z,101520.06
2022-11-27T13:32:21.741Z,101520.09
2022-11-27T13:34:51.677Z,101520.09
2022-11-27T13:37:29.368Z,101508.25
2022-11-27T13:40:04.006Z,101503.06
2022-11-27T13:42:34.723Z,101498.59
2022-11-27T13:45:10.014Z,101493.56
2022-11-27T13:47:42.130Z,101496.97
2022-11-27T13:50:12.775Z,101496.06
2022-11-27T13:53:07.580Z,101483.53
2022-11-27T13:55:40.346Z,101479.97
2022-11-27T13:58:09.250Z,101481.03
2022-11-27T14:00:46.504Z,101477.47
2022-11-27T14:03:24.162Z,101472.78
2022-11-27T14:05:52.296Z,101467.78
2022-11-27T14:08:24.218Z,101472.09
2022-11-27T14:11:00.351Z,101472.78
2022-11-27T14:13:37.464Z,101472.97
2022-11-27T14:16:27.216Z,101463.13
2022-11-27T14:18:58.179Z,101462.06
2022-11-27T14:21:40.929Z,101446.47
2022-11-27T14:24:44.127Z,101466.16
2022-11-27T14:27:20.585Z,101455.06
2022-11-27T14:29:49.262Z,101446.31
2022-11-27T14:32:20.685Z,101451.66
2022-11-27T14:34:49.597Z,101452.19
2022-11-27T14:37:23.209Z,101443.78
2022-11-27T14:39:51.173Z,101397.59
2022-11-27T14:42:27.903Z,101429.09
2022-11-27T14:45:06.991Z,101429.44
2022-11-27T14:47:37.032Z,101422.63
2022-11-27T14:50:05.533Z,101413.53
2022-11-27T14:52:33.946Z,101422.81
2022-11-27T14:55:03.248Z,101414.22
2022-11-27T14:57:32.144Z,101414.94
2022-11-27T15:00:15.148Z,101406.88
2022-11-27T15:02:44.547Z,101397.56
2022-11-27T15:05:21.133Z,101395.94
2022-11-27T15:07:51.081Z,101397.06
2022-11-27T15:10:28.109Z,101390.44
2022-11-27T15:12:56.582Z,101389.34
2022-11-27T15:15:30.123Z,101369.28
2022-11-27T15:18:02.292Z,101373.91
2022-11-27T15:20:37.645Z,101371.41
2022-11-27T15:23:13.810Z,101369.63
2022-11-27T15:25:43.201Z,101373.56
2022-11-27T15:28:40.624Z,101367.13
2022-11-27T15:31:28.413Z,101371.06
2022-11-27T15:34:06.683Z,101345.69
2022-11-27T15:36:40.845Z,101355.69
2022-11-27T15:39:25.608Z,101371.25
2022-11-27T15:41:55.880Z,101337.28
2022-11-27T15:44:24.285Z,101369.66
2022-11-27T15:46:52.803Z,101366.41
2022-11-27T15:49:23.442Z,101363.91
2022-11-27T15:51:51.906Z,101362.47
2022-11-27T15:54:20.610Z,101335.66
2022-11-27T15:56:48.555Z,101358.19
2022-11-27T15:59:17.831Z,101342.41
2022-11-27T16:01:55.386Z,101336.50
2022-11-27T16:04:24.866Z,101338.66
2022-11-27T16:06:55.165Z,101335.25
2022-11-27T16:09:23.594Z,101342.63
2022-11-27T16:12:07.832Z,101332.94
2022-11-27T16:14:36.431Z,101335.28
2022-11-27T16:17:04.484Z,101334.22
2022-11-27T16:20:12.475Z,101338.00
2022-11-27T16:23:01.368Z,101333.88
2022-11-27T16:25:29.413Z,101328.69
2022-11-27T16:28:03.549Z,101341.38
2022-11-27T16:30:33.260Z,101340.16
2022-11-27T16:33:02.850Z,101334.78
2022-11-27T16:35:41.388Z,101323.69
2022-11-27T16:38:09.323Z,101325.31
2022-11-27T16:40:37.222Z,101312.78
2022-11-27T16:43:05.597Z,101312.97
2022-11-27T16:45:50.134Z,101311.38
2022-11-27T16:48:18.346Z,101299.53
2022-11-27T16:51:07.034Z,101292.03
2022-11-27T16:53:38.705Z,101296.34
2022-11-27T16:56:07.271Z,101288.81
2022-11-27T16:58:38.244Z,101291.31
2022-11-27T17:01:06.959Z,101276.81
2022-11-27T17:03:35.147Z,101265.91
2022-11-27T17:06:10.324Z,101265.19
2022-11-27T17:08:38.840Z,101261.78
2022-11-27T17:11:09.610Z,101234.97
2022-11-27T17:13:40.701Z,101250.53
2022-11-27T17:16:09.764Z,101251.75
2022-11-27T17:18:39.413Z,101206.88
2022-11-27T17:21:18.152Z,101242.09
2022-11-27T17:23:49.675Z,101248.72
2022-11-27T17:26:19.271Z,101246.91
2022-11-27T17:28:47.648Z,101248.16
2022-11-27T17:31:17.621Z,101254.97
2022-11-27T17:33:46.266Z,101238.13
2022-11-27T17:36:16.276Z,101239.03
2022-11-27T17:38:44.585Z,101232.97
2022-11-27T17:41:14.070Z,101237.59
2022-11-27T17:43:43.494Z,101231.84
2022-11-27T17:46:14.365Z,101225.06
2022-11-27T17:48:42.326Z,101230.25
2022-11-27T17:51:10.967Z,101226.84
2022-11-27T17:53:42.588Z,101217.56
2022-11-27T17:56:13.247Z,101210.94
2022-11-27T17:58:42.043Z,101201.47
2022-11-27T18:01:20.369Z,101198.78
2022-11-27T18:03:51.909Z,101200.72
2022-11-27T18:06:22.667Z,101203.22
2022-11-27T18:08:52.303Z,101183.91
2022-11-27T18:11:21.821Z,101196.78
2022-11-27T18:13:52.917Z,101182.47
2022-11-27T18:16:23.759Z,101167.97
2022-11-27T18:18:52.327Z,101184.44
2022-11-27T18:21:21.750Z,101170.84
2022-11-27T18:29:30.385Z,101164.94
2022-11-27T18:31:58.413Z,101167.63
2022-11-27T18:34:26.584Z,101164.22
2022-11-27T18:36:57.189Z,101158.13
2022-11-27T18:39:29.753Z,101149.59
2022-11-27T18:41:59.664Z,101155.63
2022-11-27T18:44:27.973Z,101157.09
2022-11-27T18:46:58.878Z,101148.09
2022-11-27T18:49:27.594Z,101153.13
2022-11-27T18:51:56.572Z,101151.34
2022-11-27T18:54:25.218Z,101131.50
2022-11-27T18:56:54.669Z,101132.75
2022-11-27T18:59:22.928Z,101141.16
2022-11-27T19:01:51.294Z,101149.59
2022-11-27T19:04:19.274Z,101104.94
2022-11-27T19:06:53.411Z,101143.31
2022-11-27T19:09:22.396Z,101151.56
2022-11-27T19:11:50.225Z,101144.75
2022-11-27T19:14:22.868Z,101136.69
2022-11-27T19:16:54.481Z,101145.09
2022-11-27T19:19:53.475Z,101135.25
2022-11-27T19:22:13.269Z,101138.97
2022-11-27T19:24:41.403Z,101137.38
2022-11-27T19:27:09.524Z,101127.19
2022-11-27T19:29:38.823Z,101128.44
2022-11-27T19:32:06.843Z,101130.19
2022-11-27T19:34:35.094Z,101118.03
2022-11-27T19:37:05.475Z,101108.00
2022-11-27T19:39:33.480Z,101112.53
2022-11-27T19:42:04.027Z,101118.03
2022-11-27T19:44:34.940Z,101114.84
2022-11-27T19:47:06.592Z,101114.84
2022-11-27T19:49:37.456Z,101113.22
2022-11-27T19:52:05.796Z,101097.28
2022-11-27T19:54:34.116Z,101103.00
2022-11-27T19:57:04.940Z,101095.91
2022-11-27T19:59:34.197Z,101104.47
2022-11-27T20:02:02.536Z,101099.47
2022-11-27T20:04:31.763Z,101104.28
2022-11-27T20:06:59.660Z,101096.97
2022-11-27T20:09:27.655Z,101097.13
2022-11-27T20:11:55.748Z,101086.72
2022-11-27T20:14:23.719Z,101088.81
2022-11-27T20:16:51.952Z,101094.75
2022-11-27T20:19:20.296Z,101090.63
2022-11-27T20:21:49.640Z,101083.31
2022-11-27T20:24:25.000Z,101080.09
2022-11-27T20:26:54.735Z,101083.16
2022-11-27T20:29:23.447Z,101081.53
2022-11-27T20:31:51.430Z,101072.25
2022-11-27T20:34:21.817Z,101074.00
2022-11-27T20:36:51.656Z,101070.63
2022-11-27T20:39:21.829Z,101078.31
2022-11-27T20:41:53.442Z,101077.56
2022-11-27T20:44:22.281Z,101063.50
2022-11-27T20:46:52.992Z,101065.78
2022-11-27T20:49:21.077Z,101059.72
2022-11-27T20:51:50.535Z,101055.97
2022-11-27T20:54:23.110Z,101061.53
2022-11-27T20:56:51.434Z,101041.97
2022-11-27T20:59:19.861Z,101049.75
2022-11-27T21:01:48.340Z,101045.78
2022-11-27T21:04:21.707Z,101056.13
2022-11-27T21:06:50.127Z,101047.03
2022-11-27T21:09:20.516Z,101045.75
2022-11-27T21:11:53.960Z,101044.69
2022-11-27T21:14:21.977Z,101049.69
2022-11-27T21:16:51.297Z,101048.09
2022-11-27T21:19:24.391Z,101031.25
2022-11-27T21:21:53.634Z,101030.94
2022-11-27T21:24:25.417Z,101021.06
2022-11-27T21:26:55.193Z,101020.75
2022-11-27T21:29:25.569Z,101019.84
2022-11-27T21:31:55.454Z,101021.97
2022-11-27T21:34:24.367Z,101018.56
2022-11-27T21:36:54.846Z,101018.56
2022-11-27T21:39:23.819Z,101016.59
2022-11-27T21:41:54.730Z,101013.38
2022-11-27T21:44:24.902Z,101012.50
2022-11-27T21:46:53.073Z,101005.13
2022-11-27T21:49:23.958Z,100998.91
2022-11-27T21:51:55.692Z,101001.78
2022-11-27T21:54:34.456Z,101001.09
2022-11-27T21:57:03.730Z,101009.34
2022-11-27T21:59:31.606Z,101005.25
2022-11-27T22:01:59.714Z,100995.22
2022-11-27T22:04:34.776Z,100995.72
2022-11-27T22:07:02.698Z,100995.00
2022-11-27T22:09:33.475Z,101001.06
2022-11-27T22:12:05.297Z,100985.31
2022-11-27T22:14:33.817Z,100982.09
2022-11-27T22:17:01.933Z,100979.97
2022-11-27T22:19:36.208Z,100989.41
2022-11-27T22:22:06.911Z,100989.84
2022-11-27T22:24:35.106Z,100982.31
2022-11-27T22:27:07.323Z,100973.22
2022-11-27T22:29:38.460Z,100980.00
2022-11-27T22:32:06.727Z,100986.81
2022-11-27T22:34:34.876Z,100976.06
2022-11-27T22:37:06.049Z,100978.91
2022-11-27T22:39:34.359Z,100972.31
2022-11-27T22:42:02.307Z,100971.78
2022-11-27T22:44:31.642Z,100974.28
2022-11-27T22:46:59.541Z,100968.53
2022-11-27T22:49:27.781Z,100965.38
2022-11-27T22:51:55.832Z,100958.03
2022-11-27T22:54:24.483Z,100956.97
2022-11-27T22:56:55.420Z,100948.88
2022-11-27T22:59:32.660Z,100953.19
2022-11-27T23:02:04.224Z,100922.38
2022-11-27T23:04:34.971Z,100950.75
2022-11-27T23:07:04.061Z,100949.09
2022-11-27T23:09:32.625Z,100943.22
2022-11-27T23:12:00.671Z,100932.84
2022-11-27T23:14:28.991Z,100937.00
2022-11-27T23:16:57.589Z,100935.41
2022-11-27T23:19:26.801Z,100934.88
2022-11-27T23:21:54.742Z,100924.72
2022-11-27T23:24:22.702Z,100881.59
2022-11-27T23:26:50.593Z,100903.91
2022-11-27T23:29:18.417Z,100897.31
2022-11-27T23:31:49.668Z,100905.19
2022-11-27T23:34:17.627Z,100854.63
2022-11-27T23:36:52.488Z,100880.59
2022-11-27T23:39:20.581Z,100861.69
2022-11-27T23:41:49.627Z,100857.59
2022-11-27T23:44:20.863Z,100861.75
2022-11-27T23:46:53.953Z,100900.91
2022-11-27T23:49:21.845Z,100870.69
2022-11-27T23:51:58.884Z,100847.47
2022-11-27T23:54:26.706Z,100878.19
2022-11-27T23:56:55.623Z,100869.09
2022-11-27T23:59:23.888Z,100861.59
